UAOO 241800Z 21002MPS CAVOK 22/07 Q1007 NOSIG RMK QFE743/0991
QNH:(hPa/inHg/mmHg)1007 / 29.74 / 755
QFE:(hPa/inHg/mmHg)991 / 29.26 / 743
Temperature22
Dew Point7
Visibility> 10000
WeatherCAVOK
Cloud Cover
Transition Altitude10000 ft.
Transition LevelFL120
SQUAWK